createdAt,value
2018-04-24T00:00:40.698Z,29.10
2018-04-24T00:03:07.742Z,31.87
2018-04-24T00:05:34.789Z,27.60
2018-04-24T00:08:01.842Z,35.47
2018-04-24T00:10:28.884Z,36.30
2018-04-24T00:12:55.935Z,31.57
2018-04-24T00:15:22.991Z,32.70
2018-04-24T00:17:50.031Z,33.80
2018-04-24T00:20:18.211Z,30.97
2018-04-24T00:22:45.255Z,30.83
2018-04-24T00:25:12.303Z,33.60
2018-04-24T00:27:39.294Z,29.10
2018-04-24T00:30:06.301Z,28.23
2018-04-24T00:32:33.351Z,37.00
2018-04-24T00:35:01.213Z,33.57
2018-04-24T00:37:28.268Z,31.37
2018-04-24T00:39:55.662Z,32.10
2018-04-24T00:42:22.668Z,29.23
2018-04-24T00:44:50.842Z,32.03
2018-04-24T00:47:17.893Z,30.93
2018-04-24T00:49:44.944Z,29.57
2018-04-24T00:52:11.988Z,31.57
2018-04-24T00:54:39.553Z,32.13
2018-04-24T00:57:07.932Z,32.97
2018-04-24T00:59:34.977Z,31.73
2018-04-24T01:02:02.544Z,32.53
2018-04-24T01:04:30.309Z,32.97
2018-04-24T01:06:57.965Z,31.17
2018-04-24T01:09:25.734Z,30.43
2018-04-24T01:11:52.780Z,35.73
2018-04-24T01:14:19.879Z,36.73
2018-04-24T01:16:46.827Z,34.43
2018-04-24T01:19:13.927Z,32.37
2018-04-24T01:21:40.980Z,33.37
2018-04-24T01:24:08.025Z,32.77
2018-04-24T01:26:35.026Z,31.67
2018-04-24T01:29:02.941Z,31.53
2018-04-24T01:31:29.988Z,30.50
2018-04-24T01:33:57.042Z,33.43
2018-04-24T01:36:24.089Z,31.70
2018-04-24T01:38:51.134Z,31.77
2018-04-24T01:41:18.496Z,31.47
2018-04-24T01:43:45.846Z,26.10
2018-04-24T01:46:12.895Z,29.13
2018-04-24T01:48:39.949Z,29.10
2018-04-24T01:51:06.991Z,29.60
2018-04-24T01:53:34.041Z,32.83
2018-04-24T01:56:01.093Z,32.27
2018-04-24T01:58:28.141Z,33.03
2018-04-24T02:00:55.186Z,30.20
2018-04-24T02:03:22.547Z,30.57
2018-04-24T02:05:49.796Z,33.00
2018-04-24T02:08:16.850Z,32.30
2018-04-24T02:10:43.898Z,36.40
2018-04-24T02:13:10.845Z,29.73
2018-04-24T02:15:37.890Z,29.53
2018-04-24T02:18:04.938Z,33.20
2018-04-24T02:20:31.990Z,29.60
2018-04-24T02:22:59.031Z,31.33
2018-04-24T02:25:26.080Z,31.13
2018-04-24T02:27:53.139Z,31.23
2018-04-24T02:30:21.307Z,29.07
2018-04-24T02:32:48.357Z,33.80
2018-04-24T02:35:15.401Z,30.70
2018-04-24T02:37:42.450Z,32.33
2018-04-24T02:40:09.504Z,33.20
2018-04-24T02:42:36.547Z,30.63
2018-04-24T02:45:03.599Z,32.03
2018-04-24T02:47:30.649Z,30.87
2018-04-24T02:49:57.693Z,27.67
2018-04-24T02:52:24.741Z,28.67
2018-04-24T02:54:51.794Z,27.60
2018-04-24T02:57:18.837Z,25.13
2018-04-24T02:59:46.710Z,25.10
2018-04-24T03:02:13.753Z,30.13
2018-04-24T03:04:40.802Z,25.90
2018-04-24T03:07:07.879Z,25.80
2018-04-24T03:09:34.898Z,31.23
2018-04-24T03:12:01.948Z,26.57
2018-04-24T03:14:29.973Z,26.60
2018-04-24T03:16:57.274Z,23.33
2018-04-24T03:19:24.937Z,23.53
2018-04-24T03:21:52.302Z,23.20
2018-04-24T03:24:19.341Z,28.23
2018-04-24T03:26:46.389Z,26.07
2018-04-24T03:29:13.443Z,23.90
2018-04-24T03:31:40.487Z,27.17
2018-04-24T03:34:07.537Z,24.77
2018-04-24T03:36:35.097Z,27.33
2018-04-24T03:39:02.147Z,23.20
2018-04-24T03:41:29.198Z,29.33
2018-04-24T03:43:56.144Z,24.63
2018-04-24T03:46:23.195Z,25.37
2018-04-24T03:48:50.237Z,19.73
2018-04-24T03:51:17.286Z,23.37
2018-04-24T03:53:45.260Z,24.60
2018-04-24T03:56:12.303Z,20.33
2018-04-24T03:58:39.352Z,20.70
2018-04-24T04:01:06.408Z,22.87
2018-04-24T04:03:33.962Z,21.40
2018-04-24T04:06:01.016Z,21.77
2018-04-24T04:08:28.060Z,19.83
2018-04-24T04:10:56.239Z,21.23
2018-04-24T04:13:23.591Z,23.40
2018-04-24T04:15:51.190Z,24.73
2018-04-24T04:18:24.547Z,18.90
2018-04-24T04:20:58.150Z,24.23
2018-04-24T04:23:31.240Z,17.23
2018-04-24T04:25:58.289Z,16.73
2018-04-24T04:28:25.343Z,21.93
2018-04-24T04:30:53.557Z,21.23
2018-04-24T04:33:20.571Z,18.47
2018-04-24T04:35:47.608Z,18.20
2018-04-24T04:38:14.657Z,22.00
2018-04-24T04:40:41.912Z,21.03
2018-04-24T04:43:08.959Z,20.57
2018-04-24T04:45:37.033Z,18.50
2018-04-24T04:48:04.085Z,20.17
2018-04-24T04:50:31.437Z,23.40
2018-04-24T04:52:58.485Z,22.37
2018-04-24T04:55:25.846Z,24.30
2018-04-24T04:57:52.839Z,21.70
2018-04-24T05:00:19.890Z,21.70
2018-04-24T05:02:47.246Z,18.50
2018-04-24T05:05:14.318Z,25.80
2018-04-24T05:07:41.340Z,20.13
2018-04-24T05:10:08.392Z,19.10
2018-04-24T05:12:35.434Z,24.20
2018-04-24T05:15:03.937Z,23.17
2018-04-24T05:17:30.965Z,23.77
2018-04-24T05:19:59.761Z,22.63
2018-04-24T05:22:26.804Z,23.37
2018-04-24T05:24:53.851Z,20.03
2018-04-24T05:27:20.906Z,25.73
2018-04-24T05:29:48.094Z,23.90
2018-04-24T05:32:16.436Z,26.83
2018-04-24T05:34:43.590Z,24.77
2018-04-24T05:37:11.245Z,31.70
2018-04-24T05:39:38.195Z,21.50
2018-04-24T05:42:06.111Z,29.43
2018-04-24T05:44:33.418Z,27.27
2018-04-24T05:47:00.461Z,25.60
2018-04-24T05:49:27.510Z,25.10
2018-04-24T05:51:55.137Z,26.43
2018-04-24T05:54:22.222Z,20.93
2018-04-24T05:56:49.273Z,21.17
2018-04-24T05:59:17.599Z,21.33
2018-04-24T06:01:44.597Z,21.30
2018-04-24T06:04:11.643Z,19.40
2018-04-24T06:06:39.621Z,20.47
2018-04-24T06:09:06.663Z,21.17
2018-04-24T06:11:33.818Z,22.13
2018-04-24T06:14:01.170Z,21.47
2018-04-24T06:16:28.223Z,20.43
2018-04-24T06:18:55.214Z,23.00
2018-04-24T06:21:22.221Z,19.30
2018-04-24T06:23:49.262Z,20.07
2018-04-24T06:26:16.310Z,17.53
2018-04-24T06:28:43.473Z,19.63
2018-04-24T06:31:10.465Z,23.93
2018-04-24T06:33:37.456Z,20.40
2018-04-24T06:36:04.592Z,17.23
2018-04-24T06:38:31.553Z,16.27
2018-04-24T06:40:58.601Z,23.47
2018-04-24T06:43:25.655Z,21.23
2018-04-24T06:45:52.698Z,18.90
2018-04-24T06:48:19.699Z,16.67
2018-04-24T06:50:46.602Z,16.33
2018-04-24T06:53:13.645Z,14.37
2018-04-24T06:55:40.687Z,16.70
2018-04-24T06:58:07.736Z,17.90
2018-04-24T07:00:34.646Z,16.80
2018-04-24T07:03:01.732Z,15.93
2018-04-24T07:05:28.785Z,13.30
2018-04-24T07:07:55.833Z,16.23
2018-04-24T07:10:22.876Z,14.10
2018-04-24T07:12:50.744Z,15.33
2018-04-24T07:15:17.792Z,12.33
2018-04-24T07:17:44.846Z,12.00
2018-04-24T07:20:11.893Z,14.80
2018-04-24T07:22:40.071Z,17.00
2018-04-24T07:25:07.113Z,13.63
2018-04-24T07:27:34.866Z,12.77
2018-04-24T07:30:02.077Z,13.20
2018-04-24T07:32:30.308Z,17.53
2018-04-24T07:34:58.483Z,15.23
2018-04-24T07:37:25.531Z,12.07
2018-04-24T07:39:52.586Z,18.73
2018-04-24T07:42:20.543Z,9.87
2018-04-24T07:44:47.598Z,9.67
2018-04-24T07:47:14.544Z,10.20
2018-04-24T07:49:41.804Z,11.17
2018-04-24T07:52:08.850Z,10.47
2018-04-24T07:54:35.912Z,10.43
2018-04-24T07:57:03.970Z,11.60
2018-04-24T07:59:31.023Z,9.17
2018-04-24T08:01:58.069Z,10.27
2018-04-24T08:04:25.420Z,14.07
2018-04-24T08:06:52.784Z,10.87
2018-04-24T08:09:19.826Z,13.13
2018-04-24T08:11:47.184Z,14.03
2018-04-24T08:14:14.542Z,8.57
2018-04-24T08:16:41.893Z,8.43
2018-04-24T08:19:09.170Z,7.77
2018-04-24T08:21:36.051Z,8.57
2018-04-24T08:24:03.043Z,9.63
2018-04-24T08:26:30.036Z,7.63
2018-04-24T08:28:57.142Z,12.23
2018-04-24T08:31:24.184Z,18.57
2018-04-24T08:33:51.232Z,15.70
2018-04-24T08:36:18.594Z,11.73
2018-04-24T08:38:46.192Z,10.80
2018-04-24T08:41:13.210Z,7.17
2018-04-24T08:43:41.066Z,11.50
2018-04-24T08:46:08.119Z,6.57
2018-04-24T08:48:35.163Z,6.27
2018-04-24T08:51:02.114Z,7.27
2018-04-24T08:53:29.157Z,9.30
2018-04-24T08:55:56.154Z,7.07
2018-04-24T08:58:23.152Z,12.50
2018-04-24T09:00:51.332Z,10.07
2018-04-24T09:03:18.375Z,7.63
2018-04-24T09:05:45.370Z,8.50
2018-04-24T09:08:12.370Z,15.32
2018-04-24T09:10:39.629Z,6.75
2018-04-24T09:13:06.569Z,6.28
2018-04-24T09:15:33.623Z,5.37
2018-04-24T09:18:00.666Z,8.95
2018-04-24T09:20:27.819Z,5.53
2018-04-24T09:22:54.968Z,4.97
2018-04-24T09:25:22.017Z,7.78
2018-04-24T09:27:49.167Z,8.50
2018-04-24T09:30:16.531Z,7.53
2018-04-24T09:32:43.571Z,9.73
2018-04-24T09:35:10.619Z,5.93
2018-04-24T09:37:37.673Z,8.73
2018-04-24T09:40:04.716Z,5.85
2018-04-24T09:42:31.766Z,10.05
2018-04-24T09:44:58.818Z,5.80
2018-04-24T09:47:26.785Z,7.75
2018-04-24T09:49:53.833Z,6.07
2018-04-24T09:52:20.888Z,14.32
2018-04-24T09:54:48.237Z,9.45
2018-04-24T09:57:15.285Z,9.68
2018-04-24T09:59:42.340Z,7.22
2018-04-24T10:02:09.397Z,15.27
2018-04-24T10:04:36.437Z,11.23
2018-04-24T10:07:03.487Z,10.70
2018-04-24T10:09:31.011Z,6.10
2018-04-24T10:11:57.988Z,6.72
2018-04-24T10:14:25.035Z,7.20
2018-04-24T10:16:52.090Z,6.30
2018-04-24T10:19:19.133Z,4.62
2018-04-24T10:21:46.182Z,6.87
2018-04-24T10:24:13.237Z,7.50
2018-04-24T10:26:40.892Z,7.50
2018-04-24T10:29:21.043Z,4.00
2018-04-24T10:31:48.205Z,8.70
2018-04-24T10:34:15.249Z,10.63
2018-04-24T10:36:42.297Z,8.48
2018-04-24T10:39:09.449Z,5.65
2018-04-24T10:41:36.702Z,9.60
2018-04-24T10:44:04.575Z,5.87
2018-04-24T10:46:31.734Z,6.60
2018-04-24T10:48:58.772Z,5.43
2018-04-24T10:51:25.833Z,5.50
2018-04-24T10:53:52.872Z,5.25
2018-04-24T10:56:19.920Z,7.18
2018-04-24T10:58:46.963Z,8.15
2018-04-24T11:01:14.020Z,5.97
2018-04-24T11:03:41.061Z,8.75
2018-04-24T11:06:08.939Z,4.62
2018-04-24T11:08:35.978Z,6.07
2018-04-24T11:11:03.028Z,7.25
2018-04-24T11:13:30.177Z,8.10
2018-04-24T11:15:57.230Z,6.10
2018-04-24T11:18:24.276Z,8.90
2018-04-24T11:20:51.732Z,7.87
2018-04-24T11:23:19.190Z,6.20
2018-04-24T11:25:46.244Z,5.05
2018-04-24T11:28:13.600Z,8.13
2018-04-24T11:30:41.057Z,10.70
2018-04-24T11:33:08.104Z,5.25
2018-04-24T11:35:35.974Z,7.70
2018-04-24T11:38:03.126Z,10.20
2018-04-24T11:40:30.170Z,4.43
2018-04-24T11:42:57.218Z,9.40
2018-04-24T11:45:25.086Z,6.37
2018-04-24T11:47:52.136Z,6.40
2018-04-24T11:50:19.189Z,6.78
2018-04-24T11:52:46.234Z,3.65
2018-04-24T11:55:13.281Z,5.25
2018-04-24T11:57:40.431Z,6.87
2018-04-24T12:00:07.583Z,10.45
2018-04-24T12:02:34.665Z,8.70
2018-04-24T12:05:01.679Z,8.52
2018-04-24T12:07:28.728Z,8.82
2018-04-24T12:09:55.799Z,6.62
2018-04-24T12:12:22.824Z,7.03
2018-04-24T12:14:49.873Z,11.25
2018-04-24T12:17:17.024Z,6.43
2018-04-24T12:19:45.097Z,8.80
2018-04-24T12:22:12.151Z,9.73
2018-04-24T12:24:39.197Z,7.12
2018-04-24T12:27:06.246Z,5.15
2018-04-24T12:29:34.109Z,9.65
2018-04-24T12:32:01.159Z,6.20
2018-04-24T12:34:28.216Z,11.23
2018-04-24T12:36:55.257Z,7.22
2018-04-24T12:39:22.408Z,11.00
2018-04-24T12:41:49.457Z,8.43
2018-04-24T12:44:16.513Z,7.28
2018-04-24T12:46:43.451Z,6.40
2018-04-24T12:49:11.426Z,8.90
2018-04-24T12:51:38.610Z,9.45
2018-04-24T12:54:05.682Z,11.38
2018-04-24T12:56:32.669Z,7.30
2018-04-24T12:58:59.725Z,11.00
2018-04-24T13:01:26.664Z,11.18
2018-04-24T13:03:53.760Z,9.65
2018-04-24T13:06:21.067Z,8.88
2018-04-24T13:08:48.117Z,9.70
2018-04-24T13:11:15.170Z,10.45
2018-04-24T13:13:42.630Z,7.78
2018-04-24T13:16:09.672Z,7.25
2018-04-24T13:18:36.791Z,10.40
2018-04-24T13:21:04.913Z,6.90
2018-04-24T13:23:32.775Z,15.32
2018-04-24T13:25:59.811Z,12.65
2018-04-24T13:28:26.862Z,5.32
2018-04-24T13:30:53.918Z,8.70
2018-04-24T13:33:21.680Z,9.80
2018-04-24T13:35:48.724Z,6.70
2018-04-24T13:38:15.771Z,11.18
2018-04-24T13:40:42.831Z,11.77
2018-04-24T13:43:09.906Z,5.00
2018-04-24T13:45:36.921Z,8.57
2018-04-24T13:48:04.897Z,8.32
2018-04-24T13:50:31.941Z,5.82
2018-04-24T13:52:58.935Z,11.60
2018-04-24T13:55:25.995Z,7.57
2018-04-24T13:57:53.001Z,7.03
2018-04-24T14:00:19.987Z,3.83
2018-04-24T14:02:46.994Z,3.60
2018-04-24T14:05:14.041Z,4.03
2018-04-24T14:07:41.086Z,7.15
2018-04-24T14:10:08.145Z,8.48
2018-04-24T14:12:35.182Z,4.95
2018-04-24T14:15:02.232Z,8.23
2018-04-24T14:17:29.283Z,7.53
2018-04-24T14:19:56.270Z,4.97
2018-04-24T14:22:23.281Z,5.15
2018-04-24T14:24:50.431Z,7.32
2018-04-24T14:27:17.472Z,13.32
2018-04-24T14:29:45.547Z,4.05
2018-04-24T14:32:12.595Z,12.32
2018-04-24T14:34:39.578Z,9.40
2018-04-24T14:37:06.713Z,10.52
2018-04-24T14:39:33.745Z,7.65
2018-04-24T14:42:01.759Z,9.65
2018-04-24T14:44:28.867Z,6.95
2018-04-24T14:46:55.909Z,10.40
2018-04-24T14:49:22.958Z,10.82
2018-04-24T14:51:51.142Z,9.18
2018-04-24T14:54:18.181Z,11.43
2018-04-24T14:56:45.166Z,7.55
2018-04-24T14:59:12.177Z,11.10
2018-04-24T15:01:39.333Z,7.97
2018-04-24T15:04:06.383Z,10.32
2018-04-24T15:06:39.467Z,10.75
2018-04-24T15:09:06.519Z,7.78
2018-04-24T15:11:33.571Z,14.13
2018-04-24T15:14:00.558Z,8.93
2018-04-24T15:16:27.558Z,7.72
2018-04-24T15:18:55.323Z,10.00
2018-04-24T15:21:23.119Z,7.82
2018-04-24T15:23:50.141Z,11.43
2018-04-24T15:26:17.195Z,10.23
2018-04-24T15:28:45.524Z,11.50
2018-04-24T15:31:13.807Z,7.12
2018-04-24T15:33:40.849Z,15.30
2018-04-24T15:36:07.839Z,15.20
2018-04-24T15:38:36.130Z,11.25
2018-04-24T15:41:03.266Z,17.15
2018-04-24T15:43:30.318Z,13.18
2018-04-24T15:45:57.361Z,9.75
2018-04-24T15:48:24.409Z,11.57
2018-04-24T15:50:52.280Z,11.20
2018-04-24T15:53:19.325Z,12.95
2018-04-24T15:55:47.338Z,10.10
2018-04-24T15:58:14.758Z,9.40
2018-04-24T16:00:42.261Z,9.68
2018-04-24T16:03:10.080Z,11.12
2018-04-24T16:05:37.025Z,12.63
2018-04-24T16:08:04.073Z,11.38
2018-04-24T16:10:31.129Z,11.98
2018-04-24T16:12:58.172Z,14.48
2018-04-24T16:15:25.233Z,11.00
2018-04-24T16:17:52.371Z,17.25
2018-04-24T16:20:20.852Z,12.07
2018-04-24T16:22:47.902Z,14.43
2018-04-24T16:25:15.876Z,13.38
2018-04-24T16:27:44.048Z,15.35
2018-04-24T16:30:11.266Z,10.57
2018-04-24T16:32:38.453Z,9.88
2018-04-24T16:35:05.506Z,15.40
2018-04-24T16:37:32.489Z,11.40
2018-04-24T16:39:59.493Z,16.80
2018-04-24T16:42:26.438Z,16.17
2018-04-24T16:44:53.490Z,12.40
2018-04-24T16:47:20.440Z,16.27
2018-04-24T16:49:47.489Z,15.90
2018-04-24T16:52:14.944Z,14.87
2018-04-24T16:54:41.998Z,12.68
2018-04-24T16:57:09.045Z,15.07
2018-04-24T16:59:36.543Z,17.02
2018-04-24T17:02:05.083Z,12.68
2018-04-24T17:04:32.848Z,11.93
2018-04-24T17:06:59.905Z,14.02
2018-04-24T17:09:27.051Z,16.70
2018-04-24T17:11:54.094Z,16.70
2018-04-24T17:14:21.143Z,30.98
2018-04-24T17:16:48.601Z,14.45
2018-04-24T17:19:15.655Z,15.00
2018-04-24T17:21:43.775Z,12.45
2018-04-24T17:24:11.232Z,12.45
2018-04-24T17:26:38.228Z,14.40
2018-04-24T17:29:05.277Z,13.73
2018-04-24T17:31:32.331Z,23.52
2018-04-24T17:34:00.195Z,16.10
2018-04-24T17:36:27.247Z,14.45
2018-04-24T17:38:54.291Z,24.35
2018-04-24T17:41:21.341Z,26.65
2018-04-24T17:43:48.394Z,18.30
2018-04-24T17:46:15.438Z,17.15
2018-04-24T17:48:42.485Z,16.77
2018-04-24T17:51:10.120Z,15.98
2018-04-24T17:53:37.200Z,14.65
2018-04-24T17:56:04.350Z,15.60
2018-04-24T17:58:31.403Z,19.33
2018-04-24T18:00:58.552Z,12.88
2018-04-24T18:03:26.527Z,14.82
2018-04-24T18:05:53.570Z,14.15
2018-04-24T18:10:54.124Z,20.12
2018-04-24T18:13:21.371Z,17.23
2018-04-24T18:15:48.424Z,17.40
2018-04-24T18:18:15.469Z,21.00
2018-04-24T18:20:42.468Z,18.77
2018-04-24T18:23:09.466Z,22.67
2018-04-24T18:25:36.466Z,20.20
2018-04-24T18:28:03.638Z,18.12
2018-04-24T18:30:33.131Z,20.42
2018-04-24T18:33:04.110Z,21.87
2018-04-24T18:35:32.351Z,23.12
2018-04-24T18:37:59.332Z,19.30
2018-04-24T18:40:26.484Z,19.55
2018-04-24T18:42:53.538Z,19.17
2018-04-24T18:45:20.581Z,22.05
2018-04-24T18:47:48.666Z,22.70
2018-04-24T18:50:15.699Z,20.25
2018-04-24T18:52:42.972Z,26.12
2018-04-24T18:55:10.105Z,21.40
2018-04-24T18:57:37.055Z,20.88
2018-04-24T19:00:04.207Z,22.77
2018-04-24T19:02:31.249Z,21.20
2018-04-24T19:04:58.707Z,25.40
2018-04-24T19:07:25.858Z,22.75
2018-04-24T19:09:52.905Z,25.88
2018-04-24T19:12:19.960Z,23.02
2018-04-24T19:14:47.005Z,22.75
2018-04-24T19:17:14.974Z,23.77
2018-04-24T19:19:42.028Z,23.67
2018-04-24T19:22:09.074Z,22.70
2018-04-24T19:24:41.957Z,26.30
2018-04-24T19:27:09.011Z,26.55
2018-04-24T19:29:36.057Z,22.90
2018-04-24T19:32:09.350Z,24.15
2018-04-24T19:34:36.399Z,29.37
2018-04-24T19:37:05.443Z,26.90
2018-04-24T19:39:38.284Z,36.25
2018-04-24T19:42:05.745Z,28.12
2018-04-24T19:44:32.991Z,24.85
2018-04-24T19:47:00.046Z,26.52
2018-04-24T19:49:33.037Z,26.33
2018-04-24T19:51:59.978Z,23.67
2018-04-24T19:54:27.030Z,24.92
2018-04-24T19:56:54.070Z,25.37
2018-04-24T19:59:21.117Z,30.67
2018-04-24T20:01:48.176Z,25.65
2018-04-24T20:04:15.322Z,32.37
2018-04-24T20:06:45.382Z,26.30
2018-04-24T20:09:12.394Z,28.25
2018-04-24T20:11:40.661Z,24.87
2018-04-24T20:14:07.813Z,26.20
2018-04-24T20:16:34.862Z,28.23
2018-04-24T20:19:03.549Z,32.63
2018-04-24T20:21:30.701Z,37.83
2018-04-24T20:23:57.778Z,33.77
2018-04-24T20:26:25.215Z,32.73
2018-04-24T20:28:52.361Z,32.17
2018-04-24T20:31:19.406Z,29.83
2018-04-24T20:33:46.972Z,37.23
2018-04-24T20:36:14.014Z,32.67
2018-04-24T20:38:41.028Z,32.63
2018-04-24T20:41:08.010Z,32.43
2018-04-24T20:43:35.058Z,33.20
2018-04-24T20:46:02.112Z,31.07
2018-04-24T20:48:29.154Z,33.97
2018-04-24T20:50:56.208Z,31.17
2018-04-24T20:53:24.442Z,27.93
2018-04-24T20:55:51.430Z,29.03
2018-04-24T20:58:18.419Z,29.03
2018-04-24T21:00:45.489Z,33.67
2018-04-24T21:03:13.547Z,29.73
2018-04-24T21:05:40.549Z,35.40
2018-04-24T21:08:08.007Z,33.07
2018-04-24T21:10:35.051Z,31.63
2018-04-24T21:13:02.098Z,32.10
2018-04-24T21:15:29.152Z,31.47
2018-04-24T21:17:56.196Z,27.03
2018-04-24T21:20:23.244Z,33.13
2018-04-24T21:22:50.297Z,34.83
2018-04-24T21:25:17.342Z,27.33
2018-04-24T21:27:44.799Z,31.67
2018-04-24T21:30:11.848Z,30.57
2018-04-24T21:32:38.903Z,29.43
2018-04-24T21:35:05.961Z,30.17
2018-04-24T21:37:33.350Z,29.73
2018-04-24T21:40:00.810Z,32.83
2018-04-24T21:42:27.814Z,30.83
2018-04-24T21:44:54.857Z,36.83
2018-04-24T21:47:21.905Z,37.27
2018-04-24T21:49:48.960Z,33.53
2018-04-24T21:52:16.004Z,32.40
2018-04-24T21:54:43.360Z,39.70
2018-04-24T21:57:10.414Z,37.27
2018-04-24T21:59:37.457Z,36.67
2018-04-24T22:02:04.506Z,34.83
2018-04-24T22:04:31.559Z,40.77
2018-04-24T22:06:58.603Z,31.07
2018-04-24T22:09:25.910Z,30.97
2018-04-24T22:11:52.904Z,39.93
2018-04-24T22:14:19.953Z,36.70
2018-04-24T22:16:47.411Z,29.50
2018-04-24T22:19:15.177Z,31.33
2018-04-24T22:21:46.014Z,31.80
2018-04-24T22:24:14.271Z,30.60
2018-04-24T22:26:41.340Z,32.17
2018-04-24T22:29:08.389Z,35.43
2018-04-24T22:31:35.449Z,31.63
2018-04-24T22:34:02.487Z,34.03
2018-04-24T22:36:29.539Z,37.93
2018-04-24T22:38:56.608Z,42.20
2018-04-24T22:41:23.633Z,41.40
2018-04-24T22:43:50.686Z,35.87
2018-04-24T22:46:17.735Z,36.00
2018-04-24T22:48:44.777Z,38.23
2018-04-24T22:51:11.827Z,34.00
2018-04-24T22:53:38.882Z,39.03
2018-04-24T22:56:06.172Z,37.10
2018-04-24T22:58:33.182Z,45.27
2018-04-24T23:01:00.226Z,40.03
2018-04-24T23:03:27.276Z,42.37
2018-04-24T23:05:54.328Z,38.67
2018-04-24T23:08:21.371Z,34.80
2018-04-24T23:10:54.468Z,35.37
2018-04-24T23:13:27.553Z,37.97
2018-04-24T23:16:00.953Z,33.60
2018-04-24T23:18:34.045Z,36.57
2018-04-24T23:21:01.395Z,38.10
2018-04-24T23:23:28.445Z,36.30
2018-04-24T23:25:55.500Z,34.27
2018-04-24T23:28:23.669Z,38.67
2018-04-24T23:30:50.722Z,35.60
2018-04-24T23:33:17.766Z,33.37
2018-04-24T23:35:45.737Z,33.37
2018-04-24T23:38:12.790Z,32.83
2018-04-24T23:40:39.833Z,30.93
2018-04-24T23:43:07.706Z,33.17
2018-04-24T23:45:34.749Z,35.97
2018-04-24T23:48:01.873Z,45.43
2018-04-24T23:50:29.973Z,30.63
2018-04-24T23:52:56.975Z,32.67
2018-04-24T23:55:24.689Z,34.67
2018-04-24T23:57:51.938Z,39.73
